Tiempo atmosférico en la estación meteorológica de Albacete, Albacete (674 m.)



Fecha
DESCASC
Temp. máxima en grados centígrados (hora)
DESCASC
Temp. mínima en grados centígrados (hora)
DESCASC
Temp. media en grados centígrados
DESCASC
Racha de viento máxima en m/sg (hora)
DESCASC
Velocidad máxima media en intervalos de 10 minutos(hora)
DESCASC
Precipitaciones diarias en mm
DESCASC
Precipitaciones de 00:00 a 06:00 en mm
DESCASC
Precipitaciones de 06:00 a 12:00 en mm
DESCASC
Precipitaciones de 12:00 a 18:00 en mm
DESCASC
Precipitaciones de 18:00 a 24:00 en mm
DESCASC
15-08-2019 35.9 (16:50) 17.3 (07:30) 26.6 8.61 (22:10) 2.78 (21:50) 0 0 0 0 0
14-08-2019 34.2 (17:20) 16.6 (00:00) 25.4 7.5 (00:30) 2.22 (00:10) 0 0 0 0 0
13-08-2019 31.7 (16:50) 19.9 (00:00) 25.8 8.33 (13:10) 2.5 (04:20) 0 0 0 0 0
12-08-2019 32 (17:40) 17 (00:00) 24.5 6.67 (22:00) 3.06 (22:40) 0 0 0 0 0
11-08-2019 32.9 (17:30) 21 (00:00) 27 10 (15:50) 3.33 (15:50) 0 0 0 0 0
10-08-2019 35.7 (18:20) 20.2 (00:00) 28 6.94 (22:40) 2.5 (22:40) 0 0 0 0 0
09-08-2019 36.4 (17:00) 21.4 (00:00) 28.9 8.89 (15:30) 3.33 (15:30) 0 0 0 0 0
08-08-2019 36.9 (18:30) 19.9 (00:00) 28.4 6.67 (19:50) 2.78 (20:00) 0 0 0 0 0
07-08-2019 33.8 (15:50) 21.4 (00:00) 27.6 8.61 (17:30) 3.06 (11:40) 0 0 0 0 0
06-08-2019 38 (16:50) 19.9 (00:00) 28.9 10.56 (18:00) 4.17 (16:30) 0 0 0 0 0
05-08-2019 38.3 (17:20) 19.7 (00:00) 29 7.78 (20:10) 2.78 (00:10) 0 0 0 0 0
04-08-2019 37.4 (17:00) 20.4 (00:00) 28.9 7.5 (00:10) 2.22 (22:10) 0 0 0 0 0
03-08-2019 36.3 (16:00) 20 (00:00) 28.1 8.89 (23:40) 3.33 (23:59) 0 0 0 0 0
02-08-2019 36.4 (16:50) 17.9 (00:00) 27.2 7.5 (20:30) 2.22 (02:00) 0 0 0 0 0
01-08-2019 35.9 (17:30) 17.4 (00:00) 26.7 7.22 (23:30) 2.22 (00:30) 0 0 0 0 0
31-07-2019 31.3 (18:00) 18.8 (00:00) 25 10 (14:10) 3.33 (13:00) 0 0 0 0 0
30-07-2019 36 (18:10) 18.2 (00:00) 27.1 10.56 (18:50) 3.89 (18:50) 0 0 0 0 0
29-07-2019 34.5 (17:30) 18.9 (00:00) 26.7 7.22 (18:20) 3.06 (18:20) 0 0 0 0 0
28-07-2019 31.6 (18:00) 16.5 (00:00) 24.1 6.67 (14:00) 2.5 (02:20) 0 0 0 0 0
27-07-2019 28.9 (18:20) 17.6 (00:00) 23.3 12.78 (15:30) 5.28 (10:50) 0 0 0 0 0
26-07-2019 -- (--) -- (--) -- 11.11 (18:20) 4.17 (16:00) 0 0 0 0 0
25-07-2019 36.2 (16:50) 22 (00:00) 29.1 8.61 (16:40) 3.33 (17:30) 0 0 0 0 0
24-07-2019 36.6 (16:20) 19.6 (00:00) 28.1 10.28 (18:30) 3.61 (19:00) 0 0 0 0 0
23-07-2019 36.6 (16:20) 19.4 (00:00) 28 10.56 (18:20) 4.17 (18:20) 0.6 0 0.6 0 0
22-07-2019 36.1 (18:00) 19.1 (00:00) 27.6 12.5 (17:00) 4.17 (15:50) 0 0 0 0 0
21-07-2019 36.1 (17:30) 19.4 (00:00) 27.7 8.33 (19:50) 3.06 (23:10) 0 0 0 0 0
20-07-2019 37.7 (16:40) 19 (00:00) 28.4 8.89 (21:10) 3.33 (21:20) 0 0 0 0 0
19-07-2019 35.2 (18:10) 19.3 (00:00) 27.3 9.17 (17:50) 3.61 (19:30) 0 0 0 0 0
18-07-2019 35.3 (18:00) 20 (00:00) 27.6 7.5 (22:00) 2.78 (21:20) 0 0 0 0 0

Gráficas

Temp. máximas Temp. mínimas Temp. medias Precipitaciones Rachas de viento máximas Velocidades máximas media en intervalos de 10 minutos

Datos horarios

Fecha y hora oficial Temperatura (ºC) Velocidad del viento (km/h) Dirección del viento Racha (km/h) Dirección de racha Precipitación (mm) Presión (hPa) Tendencia (hPa) Humedad (%)
2019-08-16 23:00:00 26.5 6 Sur 26 Sur 0 939.7 1.6 54
2019-08-16 22:00:00 27.9 5 Sur 27 Sudoeste 0 939.4 1.3 47
2019-08-16 21:00:00 29.6 11 Sur 26 Sudoeste 0 938.8 0.4 40
2019-08-16 20:00:00 32.3 8 Sur 23 Sur 0 938.1 -1.1 33
2019-08-16 19:00:00 34.2 8 Sudeste 21 Sudeste 0 938.1 -1.5 28
2019-08-16 18:00:00 35.5 5 Sur 17 Sur 0 938.4 -1.8 26
2019-08-16 17:00:00 35.3 3 Sudoeste 15 Oeste 0 939.2 -1.5 26
2019-08-16 16:00:00 35.7 3 Este 16 Sudoeste 0 939.6 -1.5 27
2019-08-16 15:00:00 34.6 5 Sur 17 Oeste 0 940.2 -1.6 29
2019-08-16 14:00:00 32.3 5 Sudeste 21 Sudoeste 0 940.7 -1.4 31
2019-08-16 13:00:00 30.5 5 Sudeste 23 Sudeste 0 941.1 -1 34
2019-08-16 12:00:00 27.8 6 Sur 24 Sudeste 0 941.8 -0.5 39
2019-08-16 11:00:00 24.7 7 Sudeste 23 Sudeste 0 942.1 0.1 44
2019-08-16 10:00:00 22 6 Sudeste 21 Sudeste 0 942.1 0.8 61
2019-08-16 09:00:00 20.1 8 Sudeste 19 Sudeste 0 942.3 1.2 80
2019-08-16 08:00:00 18.6 0 Calma 6 Este 0 942 0.9 81
2019-08-16 07:00:00 19.2 2 Nordeste 10 Este 0 941.3 0.4 77
2019-08-16 06:00:00 19.6 3 Nordeste 12 Este 0 941.1 0 76
2019-08-16 05:00:00 20 3 Este 9 Este 0 941.1 -0.2 70
2019-08-16 04:00:00 21.4 4 Este 14 Este 0 940.9 -0.5 63
2019-08-16 03:00:00 22.6 5 Este 15 Nordeste 0 941.1 0.2 60
2019-08-16 02:00:00 23.3 4 Este 15 Sur 0 941.3 0.5 60
2019-08-16 01:00:00 23.9 3 Este 21 Sudeste 0 941.4 0.9 58
2019-08-16 00:00:00 24.9 8 Sudeste 27 Sudeste 0 940.9 1 55
2019-08-15 23:00:00 25.9 7 Sur 31 Sudeste 0 940.8 1.7 51
2019-08-15 22:00:00 27.3 9 Sudeste 30 Sudeste 0 940.5 1.7 47
2019-08-15 21:00:00 29.3 6 Sur 26 Sur 0 939.9 0.9 40
2019-08-15 20:00:00 32.7 5 Sudoeste 21 Sur 0 939.1 -0.3 28
2019-08-15 19:00:00 34.6 4 Oeste 14 Oeste 0 938.8 -1.3 21
2019-08-15 18:00:00 35.4 3 Sudoeste 16 Sudoeste 0 939 -1.5 22
2019-08-15 17:00:00 35.4 4 Sudoeste 19 Sur 0 939.4 -1.8 23
2019-08-15 16:00:00 34.7 9 Oeste 20 Oeste 0 940.1 -1.6 23
2019-08-15 15:00:00 34.4 3 Sudoeste 13 Este 0 940.5 -1.8 23
2019-08-15 14:00:00 32.7 2 Oeste 13 Noroeste 0 941.2 -1.2 26
2019-08-15 13:00:00 30.1 3 Sudoeste 10 Oeste 0 941.7 -0.7 32
2019-08-15 12:00:00 27.2 2 Noroeste 9 Oeste 0 942.3 0 43
2019-08-15 11:00:00 23.2 0 Calma 6 Sudeste 0 942.4 0.4 65
2019-08-15 10:00:00 20.4 3 Sudoeste 11 Sudoeste 0 942.4 1.1 74
2019-08-15 09:00:00 19.3 2 Sur 10 Sudoeste 0 942.3 1.1 86
2019-08-15 08:00:00 17.4 0 Calma 5 Este 0 942 0.8 84
2019-08-15 07:00:00 17.6 0 Calma 5 Este 0 941.3 0.2 82
2019-08-15 06:00:00 18.6 0 Calma 7 Este 0 941.2 0.2 77
2019-08-15 05:00:00 20.1 3 Este 9 Este 0 941.2 -0.4 70
2019-08-15 04:00:00 21.9 4 Este 14 Sudeste 0 941.1 -0.3 69
2019-08-15 03:00:00 22.8 4 Sudeste 16 Sudeste 0 941 -0.5 66
2019-08-15 02:00:00 23.4 5 Sudeste 19 Sudeste 0 941.6 0.2 63
2019-08-15 01:00:00 24.1 4 Sur 21 Sudoeste 0 941.4 0.6 62
2019-08-15 00:00:00 25.3 7 Sur 19 Sur 0 941.5 1.4 56
2019-08-14 23:00:00 26.6 5 Sur 15 Sudoeste 0 941.4 1.5 47
2019-08-14 22:00:00 27.7 0 Calma 6 Noroeste 0 940.8 0.9 24
2019-08-14 21:00:00 30.6 2 Noroeste 14 Sudoeste 0 940.1 0.1 20
2019-08-14 20:00:00 32.7 4 Noroeste 17 Oeste 0 939.9 -0.6 20
2019-08-14 19:00:00 32.9 4 Noroeste 21 Este 0 939.9 -1 20
2019-08-14 18:00:00 33.7 3 Noroeste 21 Oeste 0 940 -1.5 20
2019-08-14 17:00:00 33.7 2 Noroeste 22 Oeste 0 940.5 -1.7 22
2019-08-14 16:00:00 32.6 7 Oeste 24 Oeste 0 940.9 -1.9 23
2019-08-14 15:00:00 32.2 5 Noroeste 18 Oeste 0 941.5 -1.4 24
2019-08-14 14:00:00 30.3 3 Oeste 17 Oeste 0 942.2 -1 29
2019-08-14 13:00:00 27.7 3 Oeste 13 Oeste 0 942.8 -0.4 39
2019-08-14 12:00:00 24.9 2 Oeste 11 Sudoeste 0 942.9 -0.2 50
2019-08-14 11:00:00 22.3 3 Sudoeste 12 Sudeste 0 943.2 0.4 67
2019-08-14 10:00:00 19.6 3 Sur 8 Oeste 0 943.2 0.6 87
2019-08-14 09:00:00 17.5 5 Oeste 11 Sudoeste 0 943.1 0.7 90
2019-08-14 08:00:00 17.4 3 Sudeste 13 Sudeste 0 942.8 0.7 97
2019-08-14 07:00:00 16.7 3 Nordeste 10 Este 0 942.6 0.6 94
2019-08-14 06:00:00 17.5 4 Este 10 Este 0 942.4 0.2 94
2019-08-14 05:00:00 18.3 4 Este 14 Sudeste 0 942.1 -0.2 93
2019-08-14 04:00:00 18.9 7 Sudeste 20 Sudeste 0 942 -0.3 92
2019-08-14 03:00:00 19.4 5 Sudeste 19 Sudeste 0 942.2 0.1 87
2019-08-14 02:00:00 20.1 6 Sudeste 21 Sur 0 942.3 0.6 84
2019-08-14 01:00:00 20.7 7 Sur 27 Sur 0 942.3 1.1 80
2019-08-14 00:00:00 21.5 7 Sur 24 Sur 0 942.1 1.9 76
2019-08-13 23:00:00 22.6 8 Sur 28 Sudeste 0 941.7 1.9 71
2019-08-13 22:00:00 23.9 6 Sur 24 Sudoeste 0 941.2 1.9 63
2019-08-13 21:00:00 26.3 8 Sudeste 26 Sudeste 0 940.2 0.8 53
2019-08-13 20:00:00 29.9 0 Calma 16 Oeste 0 939.8 0.3 30
2019-08-13 19:00:00 30 2 Sur 13 Oeste 0 939.3 -0.7 40
2019-08-13 18:00:00 30.1 2 Noroeste 19 Norte 0 939.4 -1.3 40
2019-08-13 17:00:00 30.1 6 Oeste 19 Oeste 0 939.5 -1.5 39
2019-08-13 16:00:00 31.2 3 Este 14 Este 0 940 -1.6 40
2019-08-13 15:00:00 29.4 3 Sudeste 19 Este 0 940.7 -1.3 42
2019-08-13 14:00:00 28.3 5 Sur 30 Sudeste 0 941 -1 48
2019-08-13 13:00:00 27.3 8 Sudeste 22 Sudeste 0 941.6 -0.2 55
2019-08-13 12:00:00 24.6 4 Sudeste 19 Sudeste 0 942 0.2 63
2019-08-13 11:00:00 22.8 4 Sudeste 20 Sudeste 0 942 0.2 69
2019-08-13 10:00:00 21.6 8 Sudeste 21 Este 0 941.8 1 72
2019-08-13 09:00:00 20.3 5 Este 15 Este 0 941.8 1.1 78
2019-08-13 08:00:00 20.1 5 Este 14 Sudeste 0 941.8 0.6 77
2019-08-13 07:00:00 20 5 Este 16 Este 0 940.8 -0.3 77
2019-08-13 06:00:00 20.3 5 Este 17 Nordeste 0 940.7 -0.8 74
2019-08-13 05:00:00 20.7 6 Este 22 Este 0 941.2 -0.6 73
2019-08-13 04:00:00 21 4 Este 22 Este 0 941.1 -0.8 78
2019-08-13 03:00:00 21.1 6 Este 18 Sudeste 0 941.5 0.3 81
2019-08-13 02:00:00 21.3 5 Este 17 Este 0 941.8 1.5 80
2019-08-13 01:00:00 21.2 4 Este 13 Este 0 941.9 2.5 78
2019-08-13 00:00:00 22.2 4 Nordeste 17 Sudeste 0 941.2 2.9 72
2019-08-12 23:00:00 23.5 9 Sudeste 23 Sudeste 0 940.3 2.6 65
2019-08-12 22:00:00 25.7 8 Sudeste 24 Sudeste 0 939.4 1.7 44
2019-08-12 21:00:00 28 4 Oeste 13 Noroeste 0 938.3 0.4 23
2019-08-12 20:00:00 29.9 3 Noroeste 23 Oeste 0 937.7 -0.4 23
2019-08-12 19:00:00 30.4 4 Oeste 14 Oeste 0 937.7 -1.2 22
2019-08-12 18:00:00 31.8 3 Nordeste 15 Oeste 0 937.9 -1.3 22
2019-08-12 17:00:00 30.7 3 Sudoeste 18 Oeste 0 938.1 -1.4 23
2019-08-12 16:00:00 29.9 6 Oeste 19 Oeste 0 938.9 -0.9 24
2019-08-12 15:00:00 29.4 3 Noroeste 20 Oeste 0 939.2 -1 27
2019-08-12 14:00:00 28 5 Oeste 20 Oeste 0 939.5 -0.4 32
2019-08-12 13:00:00 26.4 4 Oeste 22 Oeste 0 939.8 -0.1 37
2019-08-12 12:00:00 23.4 7 Oeste 22 Oeste 0 940.2 0.9 43
2019-08-12 11:00:00 21.2 7 Oeste 21 Oeste 0 939.9 1 43
2019-08-12 10:00:00 19.6 6 Oeste 21 Oeste 0 939.9 1.4 44
2019-08-12 09:00:00 17.6 3 Oeste 15 Sudoeste 0 939.3 0.8 44
2019-08-12 08:00:00 17.7 6 Oeste 22 Oeste 0 938.9 0.6 43
2019-08-12 07:00:00 17.2 3 Oeste 12 Oeste 0 938.5 -0.1 42
2019-08-12 06:00:00 18 5 Oeste 15 Oeste 0 938.5 -0.6 40
2019-08-12 05:00:00 18.6 6 Oeste 16 Oeste 0 938.3 -1.1 38
2019-08-12 04:00:00 19.4 6 Oeste 17 Oeste 0 938.6 -0.9 37
2019-08-12 03:00:00 20.7 8 Oeste 19 Sudoeste 0 939.1 -0.4 35
2019-08-12 02:00:00 22 8 Oeste 18 Oeste 0 939.4 0 32
2019-08-12 01:00:00 23.5 7 Oeste 17 Oeste 0 939.5 1.3 29
2019-08-12 00:00:00 24.7 4 Oeste 17 Oeste 0 939.5 2 29
2019-08-11 23:00:00 25.8 5 Oeste 14 Oeste 0 939.4 2.4 27
2019-08-11 22:00:00 27.3 0 Calma 18 Oeste 0 938.2 1.4 27
2019-08-11 21:00:00 28.6 5 Noroeste 20 Oeste 0 937.5 0.5 27
2019-08-11 20:00:00 29.8 4 Noroeste 24 Noroeste 0 937 -0.5 26
2019-08-11 19:00:00 30.8 6 Noroeste 26 Noroeste 0 936.8 -1 26
2019-08-11 18:00:00 32.5 7 Oeste 29 Oeste 0 937 -1 27
2019-08-11 17:00:00 31.9 9 Oeste 31 Oeste 0 937.5 -1.2 27
2019-08-11 16:00:00 31.8 10 Oeste 36 Oeste 0 937.8 -1.3 27
2019-08-11 15:00:00 31.6 6 Noroeste 30 Oeste 0 938 -1.5 27
2019-08-11 14:00:00 30.7 8 Oeste 28 Oeste 0 938.7 -0.7 30
2019-08-11 13:00:00 29.4 7 Oeste 22 Oeste 0 939.1 -0.8 34
2019-08-11 12:00:00 26.6 4 Oeste 13 Noroeste 0 939.5 -0.1 41
2019-08-11 11:00:00 24.6 4 Oeste 17 Oeste 0 939.4 0.1 47
2019-08-11 10:00:00 22.6 2 Noroeste 9 Oeste 0 939.9 1.3 47
2019-08-11 09:00:00 21.6 3 Noroeste 12 Oeste 0 939.6 1.6 57
2019-08-11 08:00:00 21.4 0 Calma 13 Oeste 0 939.3 1.3 54
2019-08-11 07:00:00 22.1 4 Oeste 12 Noroeste 0 938.6 0.3 59
2019-08-11 06:00:00 23.1 5 Sudoeste 14 Sudoeste 0 938 -0.4 67
2019-08-11 05:00:00 23.6 4 Sudoeste 15 Sudoeste 0 938 -0.9 64
2019-08-11 04:00:00 24.2 6 Sudoeste 17 Sur 0 938.3 -1 60
2019-08-11 03:00:00 24.9 6 Sur 27 Sudoeste 0 938.4 -0.9 57
2019-08-11 02:00:00 25.6 7 Sur 23 Sudoeste 0 938.9 -0.5 54
2019-08-11 01:00:00 26.1 6 Sur 23 Sur 0 939.3 0.7 51
2019-08-11 00:00:00 27.3 5 Sur 20 Sudeste 0 939.3 1.2 49
2019-08-10 23:00:00 28.3 7 Sur 25 Sudoeste 0 939.4 1.5 48
2019-08-10 22:00:00 30.1 8 Sur 22 Sudoeste 0 938.6 0.6 43
2019-08-10 21:00:00 32.2 6 Sur 19 Sur 0 938.1 -0.5 38
2019-08-10 20:00:00 34.2 4 Sudoeste 18 Sudoeste 0 937.9 -1.5 32
2019-08-10 19:00:00 34.9 5 Oeste 18 Oeste 0 938 -2.3 32
2019-08-10 18:00:00 35.2 3 Sudoeste 15 Sudoeste 0 938.6 -2.4 34
2019-08-10 17:00:00 34.7 2 Nordeste 19 Sudoeste 0 939.4 -2.3 37
2019-08-10 16:00:00 32.7 3 Oeste 17 Noroeste 0 940.3 -1.9 39
2019-08-10 15:00:00 32.7 4 Este 15 Este 0 941 -1.8 42
2019-08-10 14:00:00 30.1 4 Sudoeste 14 Sudoeste 0 941.7 -1 47
2019-08-10 13:00:00 28.2 0 Calma 13 Oeste 0 942.2 -0.4 55
2019-08-10 12:00:00 25.7 3 Oeste 12 Sudoeste 0 942.8 0.1 63
2019-08-10 11:00:00 23.8 5 Sudoeste 12 Sudoeste 0 942.7 0.7 70
2019-08-10 10:00:00 22.4 3 Oeste 9 Oeste 0 942.6 1.1 75
2019-08-10 09:00:00 20.8 4 Noroeste 13 Oeste 0 942.7 1.9 82
2019-08-10 08:00:00 20.3 4 Oeste 14 Oeste 0 942 1.5 83
2019-08-10 07:00:00 20.5 3 Oeste 12 Sudoeste 0 941.5 0.9 82
2019-08-10 06:00:00 21.4 4 Oeste 16 Oeste 0 940.8 0.4 79
2019-08-10 05:00:00 22.4 5 Oeste 15 Noroeste 0 940.5 -0.1 76
2019-08-10 04:00:00 23.1 6 Oeste 18 Oeste 0 940.6 0.1 70
2019-08-10 03:00:00 24 6 Oeste 17 Oeste 0 940.4 0.1 59
2019-08-10 02:00:00 25.6 8 Oeste 15 Oeste 0 940.6 0.8 50
2019-08-10 01:00:00 26.8 5 Oeste 17 Oeste 0 940.5 1.5 47
2019-08-10 00:00:00 27.7 4 Oeste 19 Oeste 0 940.3 2.1 44
2019-08-09 23:00:00 29.4 6 Oeste 16 Noroeste 0 939.8 2.2 40
2019-08-09 22:00:00 30.7 6 Oeste -- -- -- 939 1.3 38
2019-08-09 21:00:00 32.6 5 Oeste 19 Oeste 0 938.2 0.4 35
2019-08-09 20:00:00 35.1 5 Oeste 28 Oeste 0 937.6 -0.6 32
2019-08-09 19:00:00 35.1 11 Oeste 25 Oeste 0 937.7 -1.2 30
2019-08-09 18:00:00 35.9 8 Oeste 31 Oeste 0 937.8 -1.4 31
2019-08-09 17:00:00 36.4 6 Oeste 27 Noroeste 0 938.2 -1.6 32
2019-08-09 16:00:00 34.8 9 Oeste 32 Oeste 0 938.9 -1.2 33
2019-08-09 15:00:00 33.5 6 Oeste 25 Noroeste 0 939.2 -0.8 36
2019-08-09 14:00:00 32.3 9 Oeste 32 Oeste 0 939.8 0 38
2019-08-09 13:00:00 30.9 7 Oeste 27 Oeste 0 940.1 0.6 40
2019-08-09 12:00:00 28.9 8 Oeste 31 Oeste 0 940 0.6 45
2019-08-09 11:00:00 27.3 9 Oeste 27 Oeste 0 939.8 0.4 48
2019-08-09 10:00:00 25.3 6 Oeste 19 Oeste 0 939.5 0.7 48
2019-08-09 09:00:00 22.6 6 Sudoeste 17 Sudoeste 0 939.4 0.9 48
2019-08-09 08:00:00 22 6 Sudoeste 15 Sudoeste 0 939.4 0.9 47
2019-08-09 07:00:00 21.5 0 Calma 10 Sudoeste 0 938.8 0.4 45
2019-08-09 06:00:00 23 4 Sudoeste 13 Sudoeste 0 938.5 0.4 41
2019-08-09 05:00:00 23 4 Sudoeste 10 Sur 0 938.5 0.4 40
2019-08-09 04:00:00 24 5 Sur 11 Sur 0 938.4 0.4 42
2019-08-09 03:00:00 24.8 4 Sudoeste 10 Sudoeste 0 938.1 0.1 41
2019-08-09 02:00:00 25.5 2 Sur 9 Sudeste 0 938.1 0.1 41
2019-08-09 01:00:00 26 2 Sur 8 Sur 0 938 1.1 41
2019-08-09 00:00:00 27 2 Sudeste 7 Sudeste 0 938 1.9 37
2019-08-08 23:00:00 29.4 0 Calma 15 Sur 0 938 2 34
2019-08-08 22:00:00 31.6 7 Sudoeste 19 Oeste 0 936.9 0.8 24
2019-08-08 21:00:00 33.6 5 Oeste 22 Sudoeste 0 936.1 -0.3 23
2019-08-08 20:00:00 35.7 10 Oeste 24 Oeste 0 936 -0.7 25
2019-08-08 19:00:00 35.4 4 Sur 13 Sur 0 936.1 -1.4 27
2019-08-08 18:00:00 36.1 5 Sudoeste 14 Sudoeste 0 936.4 -1.8 28
2019-08-08 17:00:00 35.3 5 Oeste 15 Oeste 0 936.7 -2.1 30
2019-08-08 16:00:00 33.9 6 Sudoeste 19 Oeste 0 937.5 -1.7 33
2019-08-08 15:00:00 32.8 5 Oeste 14 Oeste 0 938.2 -1.3 36
2019-08-08 14:00:00 30.9 4 Oeste 16 Sudoeste 0 938.8 -0.4 38
2019-08-08 13:00:00 29.3 4 Sudoeste 14 Sudoeste 0 939.2 -0.1 43
2019-08-08 12:00:00 26.5 3 Sudoeste 13 Oeste 0 939.5 0.3 49
2019-08-08 11:00:00 24.3 0 Calma 11 Sudoeste 0 939.2 0.4 55
2019-08-08 10:00:00 22.6 0 Calma 9 Sudoeste 0 939.3 0.9 58
2019-08-08 09:00:00 20.7 0 Calma 6 Sur 0 939.2 0.8 63
2019-08-08 08:00:00 20 0 Calma 8 Oeste 0 938.8 0.4 63
2019-08-08 07:00:00 20.4 0 Calma 12 Oeste 0 938.4 0.2 60
2019-08-08 06:00:00 21 5 Oeste 13 Oeste 0 938.4 0 56
2019-08-08 05:00:00 21.7 2 Oeste 11 Oeste 0 938.4 0 53
2019-08-08 04:00:00 22.9 3 Oeste 10 Noroeste 0 938.2 -0.5 49
2019-08-08 03:00:00 23.6 4 Oeste 12 Oeste 0 938.4 0.5 46
2019-08-08 02:00:00 24.5 4 Noroeste 15 Noroeste 0 938.4 0.7 43
2019-08-08 01:00:00 25.5 6 Oeste 18 Noroeste 0 938.7 1.2 40
2019-08-08 00:00:00 26.6 3 Oeste 9 Sudoeste 0 937.9 1.2 38
2019-08-07 23:00:00 27.3 0 Calma 19 Oeste 0 937.7 1.4 37
2019-08-07 22:00:00 28.7 6 Oeste 19 Noroeste 0 937.5 1.1 34
2019-08-07 21:00:00 30 5 Oeste 17 Oeste 0 936.7 0.1 30
2019-08-07 20:00:00 31.2 7 Oeste 28 Oeste 0 936.3 -0.2 27
2019-08-07 19:00:00 31.6 6 Oeste 25 Oeste 0 936.4 -0.5 26
2019-08-07 18:00:00 31.7 9 Oeste 31 Oeste 0 936.6 -0.6 27
2019-08-07 17:00:00 33.1 6 Noroeste 23 Norte 0 936.5 -0.8 27
2019-08-07 16:00:00 33 5 Oeste 26 Oeste 0 936.9 -0.5 28
2019-08-07 15:00:00 32.8 6 Oeste 26 Oeste 0 937.2 -0.4 30
2019-08-07 14:00:00 31.4 4 Noroeste 26 Oeste 0 937.3 -0.1 33
2019-08-07 13:00:00 30.2 6 Oeste 30 Sudoeste 0 937.4 0.3 36
2019-08-07 12:00:00 28.7 7 Oeste 22 Oeste 0 937.6 1 40
2019-08-07 11:00:00 26.6 5 Oeste 23 Oeste 0 937.4 1.2 42
2019-08-07 10:00:00 24.8 8 Oeste 24 Oeste 0 937.1 1.3 40
2019-08-07 09:00:00 22.6 3 Oeste 12 Sudoeste 0 936.6 1.2 40
2019-08-07 08:00:00 21.5 0 Calma 9 Noroeste 0 936.2 0.8 37
2019-08-07 07:00:00 22.6 3 Oeste 14 Sudoeste 0 935.8 0.5 34
2019-08-07 06:00:00 23.5 7 Sudoeste 21 Oeste 0 935.4 -0.2 30
2019-08-07 05:00:00 23.4 8 Oeste 18 Sudoeste 0 935.4 -0.5 27
2019-08-07 04:00:00 23.4 6 Sudoeste 13 Oeste 0 935.3 -0.5 24
2019-08-07 03:00:00 23.8 3 Oeste 15 Oeste 0 935.6 -0.1 22
2019-08-07 02:00:00 25 5 Oeste 14 Sudoeste 0 935.9 0.5 20
2019-08-07 01:00:00 26.1 4 Oeste 12 Oeste 0 935.8 1 20
2019-08-07 00:00:00 27.9 3 Noroeste 15 Sur 0 935.7 1.3 19
2019-08-06 23:00:00 30.2 6 Sudoeste 21 Oeste 0 935.4 1.3 15
2019-08-06 22:00:00 31.6 6 Oeste 20 Sudoeste 0 934.8 0.6 14
2019-08-06 21:00:00 33.7 6 Oeste 21 Sudoeste 0 934.4 0.2 14
2019-08-06 20:00:00 36.1 11 Oeste 30 Oeste 0 934.1 -0.8 14
2019-08-06 19:00:00 36.3 10 Oeste 37 Oeste 0 934.2 -1.6 15
2019-08-06 18:00:00 37.2 14 Oeste 38 Oeste 0 934.2 -2.2 14
2019-08-06 17:00:00 37.7 13 Oeste 33 Oeste 0 934.9 -2.5 14
2019-08-06 16:00:00 37 3 Oeste 24 Sur 0 935.8 -2 18
2019-08-06 15:00:00 36.3 0 Calma 16 Oeste 0 936.4 -1.7 21
2019-08-06 14:00:00 34.4 3 Noroeste 19 Oeste 0 937.4 -0.9 24
2019-08-06 13:00:00 32.5 7 Oeste 15 Oeste 0 937.8 -0.3 27
2019-08-06 12:00:00 29.1 5 Oeste 11 Oeste 0 938.1 0.1 36
2019-08-06 11:00:00 26.1 3 Sudoeste 12 Sudoeste 0 938.3 0.4 44
2019-08-06 10:00:00 24.3 3 Sudoeste 12 Sudoeste 0 938.1 0.4 46
2019-08-06 09:00:00 20.7 0 Calma 4 Oeste 0 938 0.5 69
2019-08-06 08:00:00 20 0 Calma 3 Sur 0 937.9 0.4 67
2019-08-06 07:00:00 21 0 Calma 4 Sudoeste 0 937.7 0.3 60
2019-08-06 06:00:00 21.5 0 Calma 6 Oeste 0 937.5 0.3 51
2019-08-06 05:00:00 22.5 0 Calma 6 Sudoeste 0 937.5 0.2 55
2019-08-06 04:00:00 23.6 2 Sudoeste 9 Sur 0 937.4 0.2 67
2019-08-06 03:00:00 23.8 5 Sur 19 Sur 0 937.2 0.1 80
2019-08-06 02:00:00 24.1 8 Sur 24 Sudoeste 0 937.3 0.5 80
2019-08-06 01:00:00 25.4 7 Sur 24 Sudoeste 0 937.2 1.1 74
2019-08-06 00:00:00 26.9 7 Sur 26 Sudeste 0 937.1 1.7 66
2019-08-05 23:00:00 28.3 9 Sudeste 26 Sudeste 0 936.8 1.6 60
2019-08-05 22:00:00 29.9 6 Sudeste 23 Sudoeste 0 936.1 1.3 55
2019-08-05 21:00:00 31.5 7 Sur 28 Sur 0 935.4 0 47
2019-08-05 20:00:00 34.5 8 Sur 22 Sudeste 0 935.2 -0.7 30
2019-08-05 19:00:00 37.1 2 Norte 14 Oeste 0 934.8 -1.9 23
2019-08-05 18:00:00 37.7 2 Norte 15 Este 0 935.4 -1.9 22
2019-08-05 17:00:00 37.7 2 Nordeste 14 Sudeste 0 935.9 -2.4 23
2019-08-05 16:00:00 36.7 3 Nordeste 14 Sudoeste 0 936.7 -2.2 23
2019-08-05 15:00:00 35.8 0 Calma 12 Este 0 937.3 -1.7 24
2019-08-05 14:00:00 33.4 5 Sudoeste 12 Sudoeste 0 938.3 -0.9 27
2019-08-05 13:00:00 31.5 0 Calma 10 Este 0 938.9 -0.3 33
2019-08-05 12:00:00 27.8 3 Noroeste 8 Oeste 0 939 -0.1 40
2019-08-05 11:00:00 24.7 0 Calma 6 Norte 0 939.2 0.4 53
2019-08-05 10:00:00 21.8 0 Calma 8 Este 0 939.2 0.7 77
2019-08-05 09:00:00 19.9 0 Calma 5 Norte 0 939.1 0.8 87
2019-08-05 08:00:00 19.7 0 Calma -- -- 0 938.8 0.5 87
2019-08-05 07:00:00 20.2 0 Calma 5 Nordeste 0 938.5 0.2 84
2019-08-05 06:00:00 21.5 0 Calma 9 Sur 0 938.3 -0.3 74
2019-08-05 05:00:00 23.6 3 Sudeste 10 Sur 0 938.3 -0.4 70
2019-08-05 04:00:00 23.8 5 Sur 18 Sur 0 938.3 -0.3 71
2019-08-05 03:00:00 24.5 5 Sur 25 Sudoeste 0 938.6 0.4 68
2019-08-05 02:00:00 25.4 5 Sur 22 Sur 0 938.7 0.9 63
2019-08-05 01:00:00 26.3 6 Sudeste 23 Sudeste 0 938.6 1.4 56
2019-08-05 00:00:00 27.3 8 Sudeste 20 Sur 0 938.2 1.9 53
2019-08-04 23:00:00 28.4 5 Sur 23 Sudoeste 0 937.8 2 51
2019-08-04 22:00:00 30.5 8 Sur 19 Sudoeste 0 937.2 1.5 43
2019-08-04 21:00:00 33.4 7 Sur 22 Oeste 0 936.3 0.1 28
2019-08-04 20:00:00 36.3 0 Calma 11 Oeste 0 935.8 -0.7 21
2019-08-04 19:00:00 36.3 2 Oeste 15 Oeste 0 935.7 -1.5 21
2019-08-04 18:00:00 36.3 5 Oeste 14 Noroeste 0 936.2 -1.6 21
2019-08-04 17:00:00 36.9 3 Oeste 13 Este 0 936.5 -1.5 21
2019-08-04 16:00:00 37.1 4 Este 14 Sudeste 0 937.2 -1.6 22
2019-08-04 15:00:00 35.2 3 Sudoeste 13 Sudoeste 0 937.8 -1.1 23
2019-08-04 14:00:00 34 0 Calma 15 Oeste 0 938 -0.9 25
2019-08-04 13:00:00 31.7 4 Oeste 16 Oeste 0 938.8 -0.1 29
2019-08-04 12:00:00 28.6 4 Oeste 14 Oeste 0 938.9 0 37
2019-08-04 11:00:00 25.6 3 Noroeste 12 Oeste 0 938.9 0.3 47
2019-08-04 10:00:00 23.4 3 Norte 9 Norte 0 938.9 0.5 56
2019-08-04 09:00:00 21.1 0 Calma 6 Norte 0 938.9 0.9 67
2019-08-04 08:00:00 20.9 0 Calma 9 Sur 0 938.6 1 65
2019-08-04 07:00:00 21.4 4 Sur 9 Sur 0 938.4 0.6 65
2019-08-04 06:00:00 21.7 3 Sur 14 Sudoeste 0 938 0.2 68
2019-08-04 05:00:00 22 4 Sur 19 Sur 0 937.6 -0.2 70
2019-08-04 04:00:00 22.3 6 Sur 23 Sudeste 0 937.8 0.1 70
2019-08-04 03:00:00 22.9 5 Sur 23 Sudeste 0 937.8 0.3 69
2019-08-04 02:00:00 23.7 7 Sur 20 Sur 0 937.8 0.5 64
2019-08-04 01:00:00 24.6 6 Sur 27 Sudoeste 0 937.7 1.1 60
2019-08-04 00:00:00 25.6 12 Sur 32 Sur 0 937.5 1.7 55
2019-08-03 23:00:00 26.9 7 Sur 24 Sudoeste 0 937.3 1.7 49
2019-08-03 22:00:00 28.6 5 Sur 23 Sudeste 0 936.6 0.8 42
2019-08-03 21:00:00 31.3 8 Sur 20 Sudoeste 0 935.8 -0.5 33
2019-08-03 20:00:00 33.7 6 Sur 18 Sur 0 935.6 -1.1 28
2019-08-03 19:00:00 34.7 3 Este 19 Sudeste 0 935.8 -1.5 27
2019-08-03 18:00:00 35.5 3 Sur 18 Sudoeste 0 936.3 -1.4 27
2019-08-03 17:00:00 36 5 Sudeste 21 Sudeste 0 936.7 -1.8 27
2019-08-03 16:00:00 36.2 6 Este 18 Sur 0 937.3 -1.7 24
2019-08-03 15:00:00 34.7 0 Calma 14 Sudoeste 0 937.7 -1.4 27
2019-08-03 14:00:00 33.4 5 Este 14 Este 0 938.5 -0.5 31
2019-08-03 13:00:00 31.1 5 Sudeste 19 Sudoeste 0 939 -0.1 36
2019-08-03 12:00:00 28.4 7 Sur 19 Sudoeste 0 939.1 -0.3 47
2019-08-03 11:00:00 25.8 5 Sur 20 Sur 0 939 0.2 61
2019-08-03 10:00:00 23 6 Sudeste 22 Sudoeste 0 939.1 0.5 79
2019-08-03 09:00:00 21.3 5 Sudeste 18 Este 0 939.4 1.1 90
2019-08-03 08:00:00 20.5 6 Sudeste 15 Sudeste 0 938.8 0.4 93
2019-08-03 07:00:00 20.3 3 Este 15 Este 0 938.6 0.1 92
2019-08-03 06:00:00 20.3 4 Este 13 Sudeste 0 938.3 -0.4 88
2019-08-03 05:00:00 21.1 4 Este 15 Sudeste 0 938.4 -0.5 82
2019-08-03 04:00:00 22.1 6 Este 16 Sudeste 0 938.5 -0.4 78
2019-08-03 03:00:00 23.3 5 Sudeste 18 Sudeste 0 938.7 -0.1 70
2019-08-03 02:00:00 24.1 5 Este 12 Este 0 938.9 1 65
2019-08-03 01:00:00 25.7 4 Este 10 Este 0 938.9 1.5 61
2019-08-03 00:00:00 26.9 4 Este 18 Este 0 938.8 1.9 53
2019-08-02 23:00:00 28.2 5 Sur 22 Sudeste 0 937.9 1.3 47
2019-08-02 22:00:00 29.3 5 Sur 19 Sur 0 937.4 1 45
2019-08-02 21:00:00 30.7 5 Sur 27 Sudoeste 0 936.9 0.2 43
2019-08-02 20:00:00 32.9 5 Sur 24 Sudeste 0 936.6 -0.7 36
2019-08-02 19:00:00 35.4 3 Este 21 Nordeste 0 936.4 -1.4 26
2019-08-02 18:00:00 35.6 4 Oeste 16 Sudoeste 0 936.7 -1.4 22
2019-08-02 17:00:00 35.1 6 Sudoeste 14 Sudoeste 0 937.3 -1 23
2019-08-02 16:00:00 35.7 2 Sudeste 14 Este 0 937.8 -1.1 24
2019-08-02 15:00:00 34.1 4 Sudoeste 14 Norte 0 938.1 -1 28
2019-08-02 14:00:00 32.4 4 Este 16 Este 0 938.3 -0.8 32
2019-08-02 13:00:00 29.7 0 Calma 14 Norte 0 938.9 -0.1 40
2019-08-02 12:00:00 26.4 2 Nordeste 10 Nordeste 0 939.1 0.2 50
2019-08-02 11:00:00 23.5 3 Norte 10 Norte 0 939.1 0.5 68
2019-08-02 10:00:00 20.6 2 Norte 7 Nordeste 0 939 0.9 83
2019-08-02 09:00:00 18.8 0 Calma 3 Este 0 938.9 0.9 92
2019-08-02 08:00:00 18 0 Calma 3 Este 0 938.6 0.8 92
2019-08-02 07:00:00 18.4 0 Calma 5 Este 0 938.1 0.8 92
2019-08-02 06:00:00 19 0 Calma 6 Este 0 938 0.8 90
2019-08-02 05:00:00 20.1 3 Este 9 Nordeste 0 937.8 0.2 85
2019-08-02 04:00:00 22.5 2 Este 14 Sudoeste 0 937.3 -0.4 78
2019-08-02 03:00:00 23.1 5 Sur 16 Sur 0 937.2 -0.1 75
2019-08-02 02:00:00 24 8 Sur 22 Sudoeste 0 937.6 0.7 74
2019-08-02 01:00:00 25.3 6 Sur 23 Sudeste 0 937.7 1.8 64
2019-08-02 00:00:00 26.8 6 Sur 26 Sudeste 0 937.3 2.4 51
2019-08-01 23:00:00 28.1 2 Este 10 Este 0 936.9 2.5 33
2019-08-01 22:00:00 30.2 0 Calma 7 Norte 0 935.9 1.6 30
2019-08-01 21:00:00 33.2 2 Noroeste 14 Noroeste 0 934.9 0.2 29
2019-08-01 20:00:00 34.6 0 Calma 9 Norte 0 934.4 -0.8 30
2019-08-01 19:00:00 34.3 0 Calma 14 Sudeste 0 934.3 -1.6 30
2019-08-01 18:00:00 34.9 2 Sudoeste 15 Oeste 0 934.7 -1.7 29
2019-08-01 17:00:00 35.1 4 Este 15 Este 0 935.2 -1.6 31
2019-08-01 16:00:00 34.7 4 Este 13 Sudoeste 0 935.9 -1.4 32
2019-08-01 15:00:00 32.9 3 Noroeste 16 Oeste 0 936.4 -0.9 34
2019-08-01 14:00:00 31.1 5 Sudoeste 18 Oeste 0 936.8 -0.8 37
2019-08-01 13:00:00 28.7 4 Oeste 13 Noroeste 0 937.3 -0.4 41
2019-08-01 12:00:00 25.9 0 Calma 14 Sudeste 0 937.3 -0.6 50
2019-08-01 11:00:00 23.5 6 Sudeste 18 Sudeste 0 937.6 -0.2 60
2019-08-01 10:00:00 20.7 7 Sudeste 15 Sudeste 0 937.7 -0.1 79
2019-08-01 09:00:00 18.2 4 Este 8 Nordeste 0 937.9 0 91
2019-08-01 08:00:00 17.5 0 Calma 9 Este 0 937.8 -0.1 91
2019-08-01 07:00:00 17.7 2 Este 9 Sur 0 937.8 -0.1 91
2019-08-01 06:00:00 18.1 0 Calma 14 Este 0 937.9 0 89
2019-08-01 05:00:00 18.6 3 Este 13 Este 0 937.9 -0.2 85
2019-08-01 04:00:00 19.3 3 Este 17 Este 0 937.9 -0.3 80
2019-08-01 03:00:00 19.6 3 Nordeste 12 Norte 0 937.9 -0.6 73
2019-08-01 02:00:00 20.4 3 Nordeste 14 Este 0 938.1 -0.8 73
2019-08-01 01:00:00 20.9 3 Nordeste 22 Sudeste 0 938.2 0.2 73
2019-08-01 00:00:00 21.2 8 Este 23 Sudeste 0 938.5 1 72
2019-07-31 23:00:00 22.2 7 Este 24 Este 0 938.9 1.9 68
2019-07-31 22:00:00 23.8 9 Este 23 Sudeste 0 938 1.3 63
2019-07-31 21:00:00 26.1 8 Este 29 Este 0 937.5 0.4 56
2019-07-31 20:00:00 28.7 7 Este 25 Nordeste 0 937 -0.9 49
2019-07-31 19:00:00 30.1 8 Este 26 Este 0 936.7 -1.5 46
2019-07-31 18:00:00 30.8 7 Sur 26 Sur 0 937.1 -1.2 41
2019-07-31 17:00:00 30.1 9 Sudeste 27 Sudeste 0 937.9 -1.1 43
2019-07-31 16:00:00 30.1 10 Sudeste 27 Sudoeste 0 938.2 -1.3 42
2019-07-31 15:00:00 30.1 10 Sudeste 36 Sudeste 0 938.3 -1.5 42
2019-07-31 14:00:00 28.9 7 Este 32 Este 0 939 -1 48
2019-07-31 13:00:00 27.5 12 Sudeste 32 Sudeste 0 939.5 -0.4 51
2019-07-31 12:00:00 25.5 9 Este 32 Sudeste 0 939.8 0 59
2019-07-31 11:00:00 23.8 9 Este 30 Este 0 940 1.2 66
2019-07-31 10:00:00 21.7 6 Sudeste 27 Este 0 939.9 0.7 76
2019-07-31 09:00:00 19.6 3 Este 15 Nordeste 0 939.8 0.3 90
2019-07-31 08:00:00 18.9 6 Este 17 Este 0 938.8 -0.9 90
2019-07-31 07:00:00 19.9 6 Este 19 Este 0 939.2 -0.3 84
2019-07-31 06:00:00 20.7 5 Este 20 Sudeste 0 939.5 0.2 83
2019-07-31 05:00:00 21.4 6 Este 25 Este 0 939.7 0.6 82
2019-07-31 04:00:00 21.5 9 Este 23 Este 0 939.5 0.4 83
2019-07-31 03:00:00 21.4 8 Este 25 Nordeste 0 939.3 0.8 82
2019-07-31 02:00:00 22.1 8 Este 24 Nordeste 0 939.1 0.6 82
2019-07-31 01:00:00 23.1 10 Este 22 Este 0 939.1 1.7 82
2019-07-31 00:00:00 23.7 6 Este 21 Norte 0 938.5 2 75
2019-07-30 23:00:00 25.6 4 Este 21 Este 0 938.5 2.5 70
2019-07-30 22:00:00 26.5 11 Sudeste 25 Sudeste 0 937.4 1.9 63
2019-07-30 21:00:00 28.1 11 Sudeste 31 Este 0 936.5 0.8 58
2019-07-30 20:00:00 30.2 8 Este 34 Sudeste 0 936 0 50
2019-07-30 19:00:00 32 10 Este 38 Este 0 935.5 -1.1 41
2019-07-30 18:00:00 35.6 3 Sudeste 16 Este 0 935.7 -1.6 26
2019-07-30 17:00:00 35.2 3 Sudoeste 18 Norte 0 936 -1.9 27
2019-07-30 16:00:00 33.8 0 Calma 15 Oeste 0 936.6 -1.7 29
2019-07-30 15:00:00 32.6 5 Oeste 13 Oeste 0 937.3 -1.2 30
2019-07-30 14:00:00 31.6 0 Calma 15 Norte 0 937.9 -0.8 32
2019-07-30 13:00:00 29.2 2 Norte 10 Norte 0 938.3 -0.4 34
2019-07-30 12:00:00 25.9 0 Calma 8 Norte 0 938.5 0 39
2019-07-30 11:00:00 22.7 0 Calma 7 Oeste 0 938.7 0.7 43
2019-07-30 10:00:00 20.5 2 Noroeste 13 Noroeste 0 938.7 1.1 45
2019-07-30 09:00:00 19 2 Sudoeste 8 Sudoeste 0 938.5 1.4 47
2019-07-30 08:00:00 18.3 2 Sudoeste 9 Sudoeste 0 938 1.1 47
2019-07-30 07:00:00 19 4 Oeste 13 Sudoeste 0 937.6 0.7 44
2019-07-30 06:00:00 20.4 6 Oeste 14 Sudoeste 0 937.1 0.2 40
2019-07-30 05:00:00 21.2 6 Oeste 11 Sudoeste 0 936.9 0.2 39
2019-07-30 04:00:00 22 3 Sudoeste 9 Sudoeste 0 936.9 0.1 37
2019-07-30 03:00:00 22.7 5 Sudoeste 10 Sudoeste 0 936.9 0.5 35
2019-07-30 02:00:00 24.3 4 Sudoeste 11 Sudoeste 0 936.7 0.8 34
2019-07-30 01:00:00 25.8 3 Sudoeste 15 Oeste 0 936.8 1.8 30
2019-07-30 00:00:00 27 3 Sur 10 Sudoeste 0 936.4 2.4 30
2019-07-29 23:00:00 28.2 3 Sudoeste 11 Sudoeste 0 935.9 2.3 28
2019-07-29 22:00:00 29.3 4 Oeste 20 Oeste 0 935 1.6 28
2019-07-29 21:00:00 31.3 6 Oeste 21 Oeste 0 934 0.2 30
2019-07-29 20:00:00 33.1 7 Oeste 24 Noroeste 0 933.6 -0.5 30
2019-07-29 19:00:00 33.5 5 Oeste 26 Oeste 0 933.4 -1.2 30
2019-07-29 18:00:00 34.1 7 Oeste 24 Oeste 0 933.8 -- 30
2019-07-29 17:00:00 33.6 8 Oeste 23 Sur 0 934.1 -1.4 30
2019-07-29 16:00:00 33.2 7 Oeste 24 Oeste 0 934.6 -1.3 33
2019-07-29 15:00:00 -- 2 Este 17 Oeste 0 -- -- --
2019-07-29 14:00:00 31.1 3 Noroeste 16 Oeste 0 935.5 -0.6 39
2019-07-29 13:00:00 29.1 2 Sur 18 Oeste 0 935.9 -0.2 44
2019-07-29 12:00:00 26.5 0 Calma 14 Sudoeste 0 936.2 0.4 52
2019-07-29 11:00:00 23.8 4 Noroeste 14 Sudoeste 0 936.1 0.5 58
2019-07-29 10:00:00 22.2 3 Oeste 16 Sur 0 936.1 0.9 63
2019-07-29 09:00:00 20 2 Sur 9 Sudoeste 0 935.8 0.9 71
2019-07-29 08:00:00 18.9 2 Nordeste 8 Sudeste 0 935.6 1.1 73
2019-07-29 07:00:00 19 2 Este 6 Nordeste 0 935.2 0.7 70
2019-07-29 06:00:00 20.5 0 Calma 19 Sudoeste 0 934.9 0.2 66
2019-07-29 05:00:00 20.8 3 Sur 18 Sudoeste 0 934.5 -0.4 64
2019-07-29 04:00:00 21.4 4 Sudeste 17 Sudoeste 0 934.5 -0.6 60
2019-07-29 03:00:00 21.8 4 Sur 19 Sur 0 934.7 -0.5 57
2019-07-29 02:00:00 22.4 4 Sur 21 Sudoeste 0 934.9 -0.1 54
2019-07-29 01:00:00 23 5 Sudeste 21 Sudoeste 0 935.1 1 53
2019-07-29 00:00:00 23.8 6 Sur 22 Sudoeste 0 935.2 1.9 51
2019-07-28 23:00:00 25.2 5 Sur 19 Sudoeste 0 935 2.1 47
2019-07-28 22:00:00 26.7 3 Sudeste 11 Sur 0 934.1 1.2 37
2019-07-28 21:00:00 29.1 0 Calma 12 Oeste 0 933.3 0.3 34
2019-07-28 20:00:00 30.3 4 Oeste 15 Oeste 0 932.9 -0.7 33
2019-07-28 19:00:00 30.2 3 Sudoeste 15 Noroeste 0 932.9 -1.2 33
2019-07-28 18:00:00 31.1 3 Noroeste 17 Sudoeste 0 933 -1.6 33
2019-07-28 17:00:00 29.8 8 Oeste 17 Sudoeste 0 933.6 -1.4 35
2019-07-28 16:00:00 29.8 2 Oeste 21 Oeste 0 934.1 -1.2 36
2019-07-28 15:00:00 28.7 6 Oeste 20 Oeste 0 934.6 -0.9 37
2019-07-28 14:00:00 26.7 7 Oeste 24 Oeste 0 935 -0.7 41
2019-07-28 13:00:00 24.6 7 Oeste 24 Oeste 0 935.3 -0.6 45
2019-07-28 12:00:00 23.1 7 Oeste 19 Oeste 0 935.5 -0.3 50
2019-07-28 11:00:00 20.7 2 Noroeste 13 Sudoeste 0 935.7 0.6 60
2019-07-28 10:00:00 19 4 Oeste 12 Oeste 0 935.9 1 70
2019-07-28 09:00:00 17.4 2 Sudoeste 11 Oeste 0 935.8 1.4 78
2019-07-28 08:00:00 16.7 0 Calma 10 Oeste 0 935.1 1.1 80
2019-07-28 07:00:00 16.8 0 Calma 10 Oeste 0 934.9 0.9 79
2019-07-28 06:00:00 17.1 4 Oeste 12 Noroeste 0 934.4 0.3 77
2019-07-28 05:00:00 17.5 4 Oeste 16 Oeste 0 934 -0.2 74
2019-07-28 04:00:00 18.5 7 Oeste 19 Oeste 0 934 -0.1 70
2019-07-28 03:00:00 19.5 8 Oeste 20 Oeste 0 934.1 0.2 67
2019-07-28 02:00:00 19.8 5 Oeste 15 Sudoeste 0 934.2 0.6 64
2019-07-28 01:00:00 20.6 6 Oeste 21 Oeste 0 934.1 1.5 61
2019-07-28 00:00:00 21.4 7 Oeste 22 Oeste 0 933.9 2.2 58
2019-07-27 23:00:00 22.2 9 Oeste 39 Oeste 0 933.6 2.5 57
2019-07-26 12:00:00 28.6 9 Oeste 21 Oeste 0 936 -0.4 44
2019-07-26 11:00:00 26.4 6 Oeste 19 Oeste 0 936.5 0.3 49
2019-07-26 10:00:00 -- 5 Sudoeste -- -- -- -- -- --
2019-07-26 09:00:00 23.2 4 Sudoeste 10 Sudoeste 0 936.4 0.5 53
2019-07-26 08:00:00 22.5 2 Oeste 9 Oeste 0 936.2 0.1 52
2019-07-26 07:00:00 22 0 Calma 6 Sudeste 0 936.1 -0.2 54
2019-07-26 06:00:00 22.6 0 Calma 13 Sudoeste 0 935.9 -0.8 51
2019-07-26 05:00:00 22.5 4 Sur 21 Sudoeste 0 936.1 -0.9 50
2019-07-26 04:00:00 23.2 7 Sur 26 Sudoeste 0 936.3 -1 48
2019-07-26 03:00:00 24.1 7 Sur 26 Sur 0 936.7 -0.5 47
2019-07-26 02:00:00 24.8 6 Sur 26 Sudoeste 0 937 -0.2 44
2019-07-26 01:00:00 25.8 7 Sur 28 Sudoeste 0 937.3 0.7 39
2019-07-26 00:00:00 26.8 8 Sur 30 Sudoeste 0 937.2 1.1 37
2019-07-25 23:00:00 27.8 8 Sur 27 Sur 0 937.2 1.4 35
2019-07-25 22:00:00 29.6 6 Sur 23 Sudoeste 0 936.6 0.8 31
2019-07-25 21:00:00 31.3 5 Sur 23 Sudoeste 0 936.1 0.1 29
2019-07-25 20:00:00 33 8 Sudeste 28 Sudoeste 0 935.8 -0.9 27
2019-07-25 19:00:00 34.1 8 Sudeste 31 Sudeste 0 935.8 -1.5 26
2019-07-25 18:00:00 35 9 Sudeste 29 Sudeste 0 936 -1.7 24
2019-07-25 17:00:00 35.9 12 Sudeste 31 Este 0 936.7 -1.5 24
2019-07-25 16:00:00 36 9 Sudeste 23 Sudoeste 0 937.3 -1.4 26
2019-07-25 15:00:00 35 6 Sur 23 Sur 0 937.7 -1.2 26
2019-07-25 14:00:00 34 8 Sudeste 24 Sudeste 0 938.2 -0.9 30
2019-07-25 13:00:00 32.9 8 Sur 23 Sudeste 0 938.7 -0.4 32
2019-07-25 12:00:00 30.9 5 Sur 18 Sur 0 938.9 -0.3 34
2019-07-25 11:00:00 28.5 5 Sudeste 18 Sudeste 0 939.1 0.1 40
2019-07-25 10:00:00 25.8 6 Sur 23 Sudeste 0 939.1 0.3 45
2019-07-25 09:00:00 23.5 5 Sur 20 Sur 0 939.2 0.5 48
2019-07-25 08:00:00 22.2 5 Sur 20 Sur 0 939 0.2 49
2019-07-25 07:00:00 22.1 4 Sur 17 Sudoeste 0 938.8 -0.2 49
2019-07-25 06:00:00 22.2 5 Sur 18 Sudoeste 0 938.7 -0.3 48
2019-07-25 05:00:00 22.9 3 Sur 17 Sudoeste 0 938.8 -0.6 46
2019-07-25 04:00:00 23.5 3 Sudeste 14 Sur 0 939 -0.5 44
2019-07-25 03:00:00 23.9 6 Sudeste 18 Este 0 939 -0.1 42
2019-07-25 02:00:00 24.7 8 Sudeste 17 Sudeste 0 939.4 0.5 40
2019-07-25 01:00:00 25.4 5 Este 11 Este 0 939.5 1.1 38
2019-07-25 00:00:00 26.6 4 Este 25 Sur 0 939.1 1.2 35
2019-07-24 23:00:00 28.1 6 Sudeste 22 Sudeste 0 938.9 1.2 32
2019-07-24 22:00:00 29.7 6 Sudeste 27 Sudeste 0 938.4 0.8 29
2019-07-24 21:00:00 31.6 10 Sudeste 34 Este 0 937.9 -0.1 28
2019-07-24 20:00:00 33.6 11 Sudeste 30 Sudeste 0 937.7 -0.6 26
2019-07-24 19:00:00 35 13 Sudeste 37 Sudoeste 0 937.6 -0.9 26
2019-07-24 18:00:00 35.3 9 Sur 36 Sudoeste 0 938 -1.3 24
2019-07-24 17:00:00 35.8 10 Sur 32 Sudeste 0 938.3 -1.2 25
2019-07-24 16:00:00 36.1 8 Sudeste 27 Sudoeste 0 938.5 -1.5 26
2019-07-24 15:00:00 35.3 10 Sur 34 Sudeste 0 939.3 -1.1 27
2019-07-24 14:00:00 35.2 9 Sudeste 27 Sudoeste 0 939.5 -1.4 29
2019-07-24 13:00:00 33.9 6 Sudeste 24 Sudeste 0 940 -0.8 31
2019-07-24 12:00:00 31 8 Sudeste 19 Sudeste 0 940.4 -0.3 34
2019-07-24 11:00:00 26.3 5 Este 14 Este 0 940.9 0.3 43
2019-07-24 10:00:00 23.1 3 Nordeste 9 Este 0 940.8 0.5 51
2019-07-24 09:00:00 20.7 2 Nordeste 6 Este 0 940.7 0.3 60
2019-07-24 08:00:00 19.6 2 Este 6 Este 0 940.6 0.1 60
2019-07-24 07:00:00 20.2 0 Calma 10 Este 0 940.3 -0.2 53
2019-07-24 06:00:00 21 2 Nordeste 11 Sudeste 0 940.4 -0.3 45
2019-07-24 05:00:00 22.6 0 Calma 10 Sur 0 940.5 -0.6 38
2019-07-24 04:00:00 24.3 0 Calma 12 Este 0 940.5 -0.5 36
2019-07-24 03:00:00 25.2 3 Este 12 Sudeste 0 940.7 -0.4 35
2019-07-24 02:00:00 25.8 4 Sudeste 12 Sudeste 0 941.1 0.2 34
2019-07-24 01:00:00 25.7 3 Este 9 Sudeste 0 941 0.8 33
2019-07-24 00:00:00 27.2 3 Este 10 Este 0 941.1 1.2 31
2019-07-23 23:00:00 28.7 3 Sudeste 12 Sudeste 0 940.9 1.6 28
2019-07-23 22:00:00 30.1 6 Sudeste 18 Este 0 940.2 0.9 27
2019-07-23 21:00:00 31.4 5 Sudeste 23 Sur 0 939.9 0.9 26
2019-07-23 20:00:00 33.4 6 Sur 27 Sur 0 939.3 -0.6 24
2019-07-23 19:00:00 34.9 8 Sur 38 Sudeste 0 939.3 -1.1 23
2019-07-23 18:00:00 35.4 14 Sudeste 29 Sudeste 0 939 -1.8 23
2019-07-23 17:00:00 34.9 8 Sudeste 28 Sudoeste 0 939.9 -1.2 24
2019-07-23 16:00:00 36.5 6 Sur 31 Sudeste 0 940.4 -1.2 23
2019-07-23 15:00:00 34.9 10 Sudeste 32 Sudoeste 0 940.8 -1.1 26
2019-07-23 14:00:00 34.1 8 Sudeste 31 Sudoeste 0 941.1 -1.4 28
2019-07-23 13:00:00 32.3 12 Sudeste 26 Sudeste 0 941.6 -1.1 31
2019-07-23 12:00:00 30.3 8 Sudeste 25 Nordeste 0 941.9 -0.8 36
2019-07-23 11:00:00 27.1 5 Sudeste 19 Sudeste 0 942.5 -0.5 43
2019-07-23 10:00:00 24.5 4 Sudeste 12 Este 0 942.7 0 47
2019-07-23 09:00:00 20.7 4 Este 9 Este 0.2 942.7 0.3 73
2019-07-23 08:00:00 20.1 5 Este 10 Este 0.4 943 0.6 67
2019-07-23 07:00:00 19.9 4 Este 10 Este 0 942.7 0 63
2019-07-23 06:00:00 20.3 4 Este 9 Este 0 942.4 -0.7 61
2019-07-23 05:00:00 20.3 3 Este 10 Este 0 942.4 -1.1 62
2019-07-23 04:00:00 20.8 6 Este 12 Este 0 942.7 -1.1 60
2019-07-23 03:00:00 22.3 4 Este 10 Este 0 943.1 -0.6 58
2019-07-23 02:00:00 23.4 5 Este 12 Sudeste 0 943.5 0 55
2019-07-23 01:00:00 24.9 5 Este 13 Nordeste 0 943.8 0.8 40
2019-07-23 00:00:00 26 6 Este 14 Este 0 943.7 1.1 25
2019-07-22 23:00:00 27.5 3 Este 16 Sudeste 0 943.5 1.5 22
2019-07-22 22:00:00 29.8 9 Sudeste 23 Sudeste 0 943 1 21
2019-07-22 21:00:00 31.6 7 Sudeste 29 Sudeste 0 942.6 0.1 20
2019-07-22 20:00:00 33.5 11 Sudeste 32 Sudeste 0 942 -0.9 20
2019-07-22 19:00:00 34.7 13 Sudeste 33 Sudeste 0 942 -1.1 19
2019-07-22 18:00:00 36 11 Sudeste 33 Sudeste 0 942.5 -1.1 20
2019-07-22 17:00:00 35.3 12 Sudeste 45 Sudeste 0 942.9 -1.3 21
2019-07-22 16:00:00 34.9 9 Sudeste 35 Sudeste 0 943.1 -1.6 26
2019-07-22 15:00:00 33.9 10 Sudeste 33 Sudeste 0 943.6 -1.2 30
2019-07-22 14:00:00 32.7 10 Sudeste 27 Este 0 944.2 -0.7 32
2019-07-22 13:00:00 31.4 8 Sudeste 26 Este 0 944.7 -0.3 34
2019-07-22 12:00:00 29.1 11 Sudeste 25 Sur 0 944.8 -0.2 40
2019-07-22 11:00:00 26.7 8 Sudeste 19 Este 0 944.9 0 46
2019-07-22 10:00:00 24.1 7 Sudeste 20 Este 0 945 0.4 55
2019-07-22 09:00:00 20.4 3 Nordeste 6 Este 0 945 0.6 68
2019-07-22 08:00:00 19.2 2 Este 5 Este 0 944.9 0.6 68
2019-07-22 07:00:00 19.3 2 Este 7 Este 0 944.6 0.2 66
2019-07-22 06:00:00 19.9 3 Este 8 Este 0 944.4 -0.4 63
2019-07-22 05:00:00 21.2 4 Este 14 Sudeste 0 944.3 -0.9 67
2019-07-22 04:00:00 21.4 4 Este 10 Este 0 944.4 -0.8 64
2019-07-22 03:00:00 21.6 3 Este 9 Este 0 944.8 -0.4 59
2019-07-22 02:00:00 22.7 4 Este 10 Este 0 945.2 0.6 57
2019-07-22 01:00:00 23.8 5 Este 17 Sudeste 0 945.2 1.8 60
2019-07-22 00:00:00 25 6 Sudeste 26 Sudeste 0 945.2 2.8 57
2019-07-21 23:00:00 26.5 7 Sudeste 22 Este 0 944.6 3 45
2019-07-21 22:00:00 28.1 8 Este 27 Este 0 943.4 2.2 40
2019-07-21 21:00:00 30.4 9 Este 28 Sudeste 0 942.4 0.9 37
2019-07-21 20:00:00 32.7 10 Este 30 Este 0 941.6 -0.4 34
2019-07-21 19:00:00 34.7 8 Este 24 Este 0 941.2 -0.9 31
2019-07-21 18:00:00 35.2 6 Sudeste 23 Este 0 941.5 -1 32
2019-07-21 17:00:00 35.5 5 Este 23 Sudeste 0 942 -0.8 31
2019-07-21 16:00:00 35.2 10 Sudeste 25 Nordeste 0 942.1 -1.1 29
2019-07-21 15:00:00 34.2 6 Sudeste 23 Este 0 942.5 -0.6 30
2019-07-21 14:00:00 33.7 6 Este 23 Sudeste 0 942.8 -0.2 30
2019-07-21 13:00:00 31.7 7 Sudeste 22 Este 0 943.2 0.2 32
2019-07-21 12:00:00 29.4 6 Este 28 Este 0 943.1 0.3 38
2019-07-21 11:00:00 26.3 5 Este -- -- -- 943 0.8 51
2019-07-21 10:00:00 23.3 3 Este 11 Este 0 943 1.1 62
2019-07-21 09:00:00 20.7 5 Este 15 Este 0 942.8 1.1 74
2019-07-21 08:00:00 19.6 7 Este 13 Este 0 942.2 0.6 76
2019-07-21 07:00:00 19.4 0 Calma 14 Este 0 941.9 0.1 77
2019-07-21 06:00:00 20 4 Este 11 Este 0 941.7 -0.1 70
2019-07-21 05:00:00 21.2 3 Nordeste 10 Este 0 941.6 -0.4 57
2019-07-21 04:00:00 22.7 4 Este 14 Sudeste 0 941.8 -0.4 47
2019-07-21 03:00:00 23.1 4 Este 9 Este 0 941.8 -0.1 45
2019-07-21 02:00:00 24.1 3 Este 15 Sudeste 0 942 0.8 43
2019-07-21 01:00:00 25 8 Sudeste 15 Sudeste 0 942.2 2.2 40
2019-07-21 00:00:00 25.9 4 Sur 17 Sudoeste 0 941.9 2.9 39
2019-07-20 23:00:00 27.1 6 Sur 26 Sudeste 0 941.2 3.3 36
2019-07-20 22:00:00 29.4 7 Sudeste 32 Sudeste 0 940 2.4 31
2019-07-20 21:00:00 30.9 9 Sudeste 26 Sudeste 0 939 1.5 31
2019-07-20 20:00:00 32.7 8 Sur 24 Sudoeste 0 937.9 0.3 31
2019-07-20 19:00:00 35.4 9 Sur 26 Sur 0 937.6 -0.2 26
2019-07-20 18:00:00 37 6 Sudeste 23 Sudeste 0 937.5 -0.9 24
2019-07-20 17:00:00 37.4 6 Sudeste 21 Este 0 937.6 -1.3 23
2019-07-20 16:00:00 36.8 5 Sudeste 21 Sudeste 0 937.8 -1.5 23
2019-07-20 15:00:00 36.1 4 Sudeste 22 Nordeste 0 938.4 -1 23
2019-07-20 14:00:00 34.7 5 Sudeste 18 Este 0 938.9 -0.6 26
2019-07-20 13:00:00 31.7 3 Este 19 Este 0 939.3 -0.3 30
2019-07-20 12:00:00 28.4 5 Este 15 Este 0 939.4 -0.4 38
2019-07-20 11:00:00 25.6 4 Este 15 Este 0 939.5 0.1 44
2019-07-20 10:00:00 22.5 6 Este 15 Este 0 939.6 0.8 62
2019-07-20 09:00:00 19.7 8 Este 18 Este 0 939.8 1.2 90
2019-07-20 08:00:00 19 5 Este 14 Este 0 939.4 1.3 88
2019-07-20 07:00:00 19.9 4 Este 11 Este 0 938.8 0.8 62
2019-07-20 06:00:00 20.5 3 Este 10 Este 0 938.6 0.3 61
2019-07-20 05:00:00 21.5 6 Sudeste 14 Sudeste 0 938.1 -0.4 58
2019-07-20 04:00:00 22.1 7 Sudeste 17 Sur 0 938 -0.5 59
2019-07-20 03:00:00 22.7 6 Sudeste 18 Sudeste 0 938.3 0.3 57
2019-07-20 02:00:00 23 4 Este 14 Este 0 938.5 0.4 57
2019-07-20 01:00:00 23.9 4 Este 21 Sudeste 0 938.5 1 54
2019-07-20 00:00:00 25.2 5 Sur 18 Sudeste 0 938 1 50
2019-07-19 23:00:00 26.7 4 Sur 17 Sur 0 938.1 1.6 42
2019-07-19 22:00:00 28.9 6 Sudeste 24 Sudeste 0 937.5 1.1 34
2019-07-19 21:00:00 30.8 6 Sudeste 30 Sur 0 937 0.1 28
2019-07-19 20:00:00 32.7 9 Sudeste 31 Sudeste 0 936.5 -1.1 25
2019-07-19 19:00:00 33.9 9 Sudeste 25 Sudeste 0 936.4 -1.5 24
2019-07-19 18:00:00 34.3 7 Sur 33 Sudeste 0 936.9 -1.4 24
2019-07-19 17:00:00 33.9 9 Sur 27 Sudoeste 0 937.6 -1.5 25
2019-07-19 16:00:00 34.5 9 Sudeste 26 Sur 0 937.9 -1.8 26
2019-07-19 15:00:00 34.1 9 Sudeste 27 Sudeste 0 938.3 -1.6 27
2019-07-19 14:00:00 32.6 5 Sudeste 24 Este 0 939.1 -0.8 31
2019-07-19 13:00:00 30.2 8 Sudeste 28 Sudeste 0 939.7 -0.3 33
2019-07-19 12:00:00 28.1 10 Sudeste 28 Sudeste 0 939.9 0.3 37
2019-07-19 11:00:00 26.1 12 Sudeste 25 Sudeste 0 939.9 0.9 43
2019-07-19 10:00:00 24.2 10 Sudeste 23 Sudeste 0 940 0.9 50
2019-07-19 09:00:00 22.2 6 Sudeste 16 Sudeste 0 939.6 0.9 54
2019-07-19 08:00:00 19.9 3 Este 9 Este 0 939 0 60
2019-07-19 07:00:00 19.9 4 Este 15 Este 0 939.1 0.2 57
2019-07-19 06:00:00 19.7 6 Este 14 Sudeste 0 938.7 -0.3 59
2019-07-19 05:00:00 19.8 3 Nordeste 14 Este 0 939 0 61
2019-07-19 04:00:00 20.7 4 Este 10 Este 0 938.9 0 56
2019-07-19 03:00:00 22.1 3 Nordeste 13 Este 0 939 0.4 49
2019-07-19 02:00:00 23.1 5 Este 14 Este 0 939 0.7 46
2019-07-19 01:00:00 24.2 6 Sudeste 22 Sur 0 938.9 1.4 45
2019-07-19 00:00:00 25.4 7 Sudeste 27 Sudeste 0 938.6 1.7 44
2019-07-18 23:00:00 26.9 6 Sur 21 Sudoeste 0 938.3 1.9 40
2019-07-18 22:00:00 28.3 10 Sur 27 Sudoeste 0 937.5 1.1 38
2019-07-18 21:00:00 30.3 9 Sur 24 Sur 0 936.9 0.4 35
2019-07-18 20:00:00 33.6 5 Sur 17 Sur 0 936.4 -0.7 30
2019-07-18 19:00:00 34 5 Este 19 Este 0 936.4 -1 28
2019-07-18 18:00:00 35.1 2 Este 17 Sudoeste 0 936.5 -1.3 28
2019-07-18 17:00:00 33.5 4 Sudeste 16 Sudeste 0 937.1 -1.3 29
2019-07-18 16:00:00 34.3 3 Sudoeste 15 Este 0 937.4 -1.6 28
2019-07-18 15:00:00 33.6 3 Este 15 Oeste 0 937.8 -1.3 30
2019-07-18 14:00:00 31.8 3 Sudeste 14 Sudoeste 0 938.4 -0.7 34
2019-07-18 13:00:00 29.2 3 Sur 13 Sudeste 0 939 0 39
2019-07-18 12:00:00 26 2 Sudeste 10 Sur 0 939.1 0.4 45
2019-07-18 11:00:00 24 3 Sur 12 Sudoeste 0 939.1 0.5 47
2019-07-18 10:00:00 21.9 2 Oeste 7 Oeste 0 939 1 53
2019-07-18 09:00:00 20.6 3 Oeste 8 Sudoeste 0 938.7 0.8 58
2019-07-18 08:00:00 20 0 Calma 13 Sudoeste 0 938.6 0.7 56
2019-07-18 07:00:00 20.3 3 Sur 12 Sur 0 938 0.1 53
2019-07-18 06:00:00 20.9 4 Sur 14 Sudeste 0 937.9 -0.1 51
2019-07-18 05:00:00 21.4 4 Sudeste 18 Sudeste 0 937.9 -0.3 51
2019-07-18 04:00:00 21.7 6 Sudeste 15 Este 0 937.9 0 50
2019-07-18 03:00:00 22.4 4 Sudeste 15 Sudeste 0 938 0.2 53
2019-07-18 02:00:00 22.8 4 Sudeste 14 Sur 0 938.2 0.9 54
2019-07-18 01:00:00 23.4 7 Sudeste 21 Sudeste 0 937.9 1.3 54
2019-07-18 00:00:00 24.1 6 Sur 25 Sur 0 937.8 1.9 50